Etusivu
METAR-TAF:

METAR-TAF

Lentoasemat :

Felts Field Airport

Spokane, Washington, Yhdysvallat

Leveyspiiri: 47-41-08N, Pituuspiiri: 117-19-13W, korkeus merenpinnasta: 595 m

Tämänhetkinen sää

Tämä raportti tehtiin 44 minuuttia sitten, kello 12.53 UTC
tyyntä
Lämpötila 6°C
Kosteus 87%
Ilmanpaine 1025 hPa
Näkyvyys: 16.1 km
selkeää

METAR: KSFF 291253Z 00000KT 10SM CLR 06/04 A3028 RMK AO2 SLP252 T00610039

Aika: 06:37 (13:37 UTC)

Sääennuste

Tämä raportti tehtiin 2 tuntia ja 17 minuuttia sitten, kello 11.20 UTC
Ennuste voimassa 29. päivästä klo 12 UTC - 30. päivään klo 12 UTC
Tuuli 3 kn eri suunnista
Näkyvyys: 10 km
selkeää

TAF: KSFF 291120Z 2912/3012 VRB03KT P6SM SKC

Säähavainnot ja -ennusteet yli 4000 lentoasemalta (METAR- ja TAF-raportit).

Käytössä olevat sääasemat on merkitty karttaan keltaisilla ja punaisilla pisteillä.

Aseta hiiri pisteen päälle nähdäksesi sääaseman nimen.

Klikkaa sitten nähdäksesi säähavainnot ja -ennusteet.

Kartan vaihtaminen: klikkaa mustalla rastilla varustettuja vihreitä pisteitä, niin voit zoomata sisään; viivalla varustettua vihreää pistettä, niin voit zoomata ulos tai vihreitä nuolia, niin pääset viereisille kartoille.


METAR-TAF: